sensor_id;sensor_type;location;lat;lon;timestamp;temperature;humidity
10868;DHT22;62667;48.698;8.762;2022-08-06T00:00:22;20.60;45.60
10868;DHT22;62667;48.698;8.762;2022-08-06T00:02:48;20.60;45.00
10868;DHT22;62667;48.698;8.762;2022-08-06T00:05:15;20.50;45.10
10868;DHT22;62667;48.698;8.762;2022-08-06T00:07:42;20.60;44.40
10868;DHT22;62667;48.698;8.762;2022-08-06T00:10:09;20.50;44.10
10868;DHT22;62667;48.698;8.762;2022-08-06T00:12:35;20.60;44.20
10868;DHT22;62667;48.698;8.762;2022-08-06T00:15:04;20.60;43.80
10868;DHT22;62667;48.698;8.762;2022-08-06T00:17:32;20.50;44.30
10868;DHT22;62667;48.698;8.762;2022-08-06T00:20:00;20.60;43.90
10868;DHT22;62667;48.698;8.762;2022-08-06T00:22:28;20.60;43.30
10868;DHT22;62667;48.698;8.762;2022-08-06T00:24:54;20.50;43.90
10868;DHT22;62667;48.698;8.762;2022-08-06T00:27:21;20.40;43.60
10868;DHT22;62667;48.698;8.762;2022-08-06T00:29:47;20.40;44.10
10868;DHT22;62667;48.698;8.762;2022-08-06T00:32:15;20.40;43.90
10868;DHT22;62667;48.698;8.762;2022-08-06T00:34:42;20.40;43.90
10868;DHT22;62667;48.698;8.762;2022-08-06T00:37:08;20.40;43.60
10868;DHT22;62667;48.698;8.762;2022-08-06T00:39:35;20.40;44.40
10868;DHT22;62667;48.698;8.762;2022-08-06T00:42:02;20.40;44.00
10868;DHT22;62667;48.698;8.762;2022-08-06T00:44:29;20.30;43.90
10868;DHT22;62667;48.698;8.762;2022-08-06T00:46:55;20.30;44.10
10868;DHT22;62667;48.698;8.762;2022-08-06T00:49:22;20.30;43.90
10868;DHT22;62667;48.698;8.762;2022-08-06T00:51:48;20.40;43.30
10868;DHT22;62667;48.698;8.762;2022-08-06T00:54:15;20.30;43.60
10868;DHT22;62667;48.698;8.762;2022-08-06T00:56:42;20.30;43.50
10868;DHT22;62667;48.698;8.762;2022-08-06T00:59:08;20.30;43.90
10868;DHT22;62667;48.698;8.762;2022-08-06T01:01:37;20.30;43.70
10868;DHT22;62667;48.698;8.762;2022-08-06T01:04:04;20.30;43.80
10868;DHT22;62667;48.698;8.762;2022-08-06T01:06:30;20.30;43.70
10868;DHT22;62667;48.698;8.762;2022-08-06T01:08:59;20.20;43.60
10868;DHT22;62667;48.698;8.762;2022-08-06T01:11:26;20.20;44.00
10868;DHT22;62667;48.698;8.762;2022-08-06T01:13:55;20.10;44.20
10868;DHT22;62667;48.698;8.762;2022-08-06T01:16:24;20.10;44.40
10868;DHT22;62667;48.698;8.762;2022-08-06T01:19:03;20.10;44.00
10868;DHT22;62667;48.698;8.762;2022-08-06T01:21:51;20.10;44.30
10868;DHT22;62667;48.698;8.762;2022-08-06T01:25:07;20.10;44.00
10868;DHT22;62667;48.698;8.762;2022-08-06T01:27:46;20.00;44.10
10868;DHT22;62667;48.698;8.762;2022-08-06T01:30:20;20.00;44.00
10868;DHT22;62667;48.698;8.762;2022-08-06T01:32:55;20.00;44.00
10868;DHT22;62667;48.698;8.762;2022-08-06T01:35:30;20.00;43.90
10868;DHT22;62667;48.698;8.762;2022-08-06T01:38:07;20.10;43.90
10868;DHT22;62667;48.698;8.762;2022-08-06T01:40:38;20.00;43.50
10868;DHT22;62667;48.698;8.762;2022-08-06T01:43:12;20.10;43.70
10868;DHT22;62667;48.698;8.762;2022-08-06T01:45:43;20.10;43.30
10868;DHT22;62667;48.698;8.762;2022-08-06T01:48:13;20.00;43.30
10868;DHT22;62667;48.698;8.762;2022-08-06T01:50:47;20.10;43.40
10868;DHT22;62667;48.698;8.762;2022-08-06T01:53:19;20.00;43.10
10868;DHT22;62667;48.698;8.762;2022-08-06T01:55:54;20.00;43.30
10868;DHT22;62667;48.698;8.762;2022-08-06T01:58:28;20.00;43.20
10868;DHT22;62667;48.698;8.762;2022-08-06T02:00:59;19.90;43.70
10868;DHT22;62667;48.698;8.762;2022-08-06T02:03:30;19.90;43.70
10868;DHT22;62667;48.698;8.762;2022-08-06T02:06:00;19.90;44.00
10868;DHT22;62667;48.698;8.762;2022-08-06T02:08:30;19.90;44.30
10868;DHT22;62667;48.698;8.762;2022-08-06T02:11:03;19.90;44.50
10868;DHT22;62667;48.698;8.762;2022-08-06T02:13:31;19.80;44.30
10868;DHT22;62667;48.698;8.762;2022-08-06T02:16:02;19.80;44.50
10868;DHT22;62667;48.698;8.762;2022-08-06T02:18:35;19.80;44.70
10868;DHT22;62667;48.698;8.762;2022-08-06T02:21:06;19.80;45.00
10868;DHT22;62667;48.698;8.762;2022-08-06T02:23:35;19.60;45.40
10868;DHT22;62667;48.698;8.762;2022-08-06T02:26:04;19.60;46.00
10868;DHT22;62667;48.698;8.762;2022-08-06T02:28:32;19.60;46.30
10868;DHT22;62667;48.698;8.762;2022-08-06T02:31:00;19.60;46.30
10868;DHT22;62667;48.698;8.762;2022-08-06T02:33:27;19.70;45.90
10868;DHT22;62667;48.698;8.762;2022-08-06T02:35:59;19.70;45.90
10868;DHT22;62667;48.698;8.762;2022-08-06T02:38:35;19.70;45.80
10868;DHT22;62667;48.698;8.762;2022-08-06T02:41:14;19.60;46.10
10868;DHT22;62667;48.698;8.762;2022-08-06T02:43:49;19.60;46.40
10868;DHT22;62667;48.698;8.762;2022-08-06T02:46:23;19.60;46.30
10868;DHT22;62667;48.698;8.762;2022-08-06T02:48:59;19.60;46.50
10868;DHT22;62667;48.698;8.762;2022-08-06T02:51:34;19.40;46.50
10868;DHT22;62667;48.698;8.762;2022-08-06T02:54:08;19.40;47.00
10868;DHT22;62667;48.698;8.762;2022-08-06T02:56:42;19.30;47.00
10868;DHT22;62667;48.698;8.762;2022-08-06T02:59:20;19.20;47.30
10868;DHT22;62667;48.698;8.762;2022-08-06T03:01:55;19.20;47.30
10868;DHT22;62667;48.698;8.762;2022-08-06T03:04:25;19.20;47.60
10868;DHT22;62667;48.698;8.762;2022-08-06T03:06:55;19.20;47.80
10868;DHT22;62667;48.698;8.762;2022-08-06T03:09:24;19.20;47.70
10868;DHT22;62667;48.698;8.762;2022-08-06T03:11:52;19.20;48.10
10868;DHT22;62667;48.698;8.762;2022-08-06T03:14:21;19.20;47.90
10868;DHT22;62667;48.698;8.762;2022-08-06T03:16:49;19.20;48.10
10868;DHT22;62667;48.698;8.762;2022-08-06T03:19:18;19.20;48.20
10868;DHT22;62667;48.698;8.762;2022-08-06T03:21:49;19.10;48.20
10868;DHT22;62667;48.698;8.762;2022-08-06T03:24:19;19.20;48.20
10868;DHT22;62667;48.698;8.762;2022-08-06T03:26:48;19.10;48.20
10868;DHT22;62667;48.698;8.762;2022-08-06T03:29:20;19.10;48.50
10868;DHT22;62667;48.698;8.762;2022-08-06T03:31:49;19.10;48.40
10868;DHT22;62667;48.698;8.762;2022-08-06T03:34:16;19.10;48.80
10868;DHT22;62667;48.698;8.762;2022-08-06T03:36:43;19.10;48.70
10868;DHT22;62667;48.698;8.762;2022-08-06T03:39:10;19.20;48.40
10868;DHT22;62667;48.698;8.762;2022-08-06T03:41:39;19.20;48.50
10868;DHT22;62667;48.698;8.762;2022-08-06T03:44:07;19.10;49.00
10868;DHT22;62667;48.698;8.762;2022-08-06T03:46:37;19.00;49.00
10868;DHT22;62667;48.698;8.762;2022-08-06T03:49:16;19.00;49.30
10868;DHT22;62667;48.698;8.762;2022-08-06T03:51:49;18.90;50.10
10868;DHT22;62667;48.698;8.762;2022-08-06T03:54:22;19.00;49.40
10868;DHT22;62667;48.698;8.762;2022-08-06T03:56:52;19.00;49.00
10868;DHT22;62667;48.698;8.762;2022-08-06T03:59:26;19.00;49.30
10868;DHT22;62667;48.698;8.762;2022-08-06T04:01:54;19.00;49.30
10868;DHT22;62667;48.698;8.762;2022-08-06T04:06:52;18.90;48.90
10868;DHT22;62667;48.698;8.762;2022-08-06T04:09:21;18.90;49.60
10868;DHT22;62667;48.698;8.762;2022-08-06T04:11:49;18.90;49.80
10868;DHT22;62667;48.698;8.762;2022-08-06T04:14:16;18.80;49.70
10868;DHT22;62667;48.698;8.762;2022-08-06T04:16:42;18.80;49.90
10868;DHT22;62667;48.698;8.762;2022-08-06T04:19:11;18.80;49.90
10868;DHT22;62667;48.698;8.762;2022-08-06T04:21:39;18.80;50.00
10868;DHT22;62667;48.698;8.762;2022-08-06T04:24:06;18.80;50.20
10868;DHT22;62667;48.698;8.762;2022-08-06T04:26:33;18.80;50.30
10868;DHT22;62667;48.698;8.762;2022-08-06T04:29:07;18.80;50.30
10868;DHT22;62667;48.698;8.762;2022-08-06T04:31:38;18.70;50.60
10868;DHT22;62667;48.698;8.762;2022-08-06T04:34:07;18.60;50.90
10868;DHT22;62667;48.698;8.762;2022-08-06T04:36:36;18.70;50.90
10868;DHT22;62667;48.698;8.762;2022-08-06T04:39:03;18.70;50.80
10868;DHT22;62667;48.698;8.762;2022-08-06T04:41:30;18.70;51.20
10868;DHT22;62667;48.698;8.762;2022-08-06T04:43:58;18.70;51.20
10868;DHT22;62667;48.698;8.762;2022-08-06T04:46:25;18.70;51.20
10868;DHT22;62667;48.698;8.762;2022-08-06T04:48:52;18.60;51.20
10868;DHT22;62667;48.698;8.762;2022-08-06T04:51:22;18.80;51.40
10868;DHT22;62667;48.698;8.762;2022-08-06T04:53:51;18.70;50.80
10868;DHT22;62667;48.698;8.762;2022-08-06T04:56:18;18.80;51.10
10868;DHT22;62667;48.698;8.762;2022-08-06T04:58:44;18.80;51.00
10868;DHT22;62667;48.698;8.762;2022-08-06T05:01:11;18.80;51.90
10868;DHT22;62667;48.698;8.762;2022-08-06T05:03:37;18.70;51.20
10868;DHT22;62667;48.698;8.762;2022-08-06T05:06:08;18.70;51.60
10868;DHT22;62667;48.698;8.762;2022-08-06T05:08:41;18.70;51.40
10868;DHT22;62667;48.698;8.762;2022-08-06T05:11:16;18.70;51.60
10868;DHT22;62667;48.698;8.762;2022-08-06T05:13:54;18.70;51.50
10868;DHT22;62667;48.698;8.762;2022-08-06T05:16:24;18.80;51.50
10868;DHT22;62667;48.698;8.762;2022-08-06T05:18:57;18.80;51.20
10868;DHT22;62667;48.698;8.762;2022-08-06T05:21:29;18.80;50.80
10868;DHT22;62667;48.698;8.762;2022-08-06T05:24:00;18.90;51.20
10868;DHT22;62667;48.698;8.762;2022-08-06T05:26:29;19.00;50.60
10868;DHT22;62667;48.698;8.762;2022-08-06T05:28:56;19.00;50.70
10868;DHT22;62667;48.698;8.762;2022-08-06T05:31:30;18.90;50.60
10868;DHT22;62667;48.698;8.762;2022-08-06T05:33:57;18.90;50.90
10868;DHT22;62667;48.698;8.762;2022-08-06T05:36:26;19.00;50.90
10868;DHT22;62667;48.698;8.762;2022-08-06T05:38:55;19.10;50.70
10868;DHT22;62667;48.698;8.762;2022-08-06T05:41:21;19.10;50.60
10868;DHT22;62667;48.698;8.762;2022-08-06T05:43:49;19.10;50.80
10868;DHT22;62667;48.698;8.762;2022-08-06T05:46:20;19.10;50.40
10868;DHT22;62667;48.698;8.762;2022-08-06T05:48:55;19.10;50.40
10868;DHT22;62667;48.698;8.762;2022-08-06T05:51:36;19.00;50.50
10868;DHT22;62667;48.698;8.762;2022-08-06T05:54:12;19.00;50.80
10868;DHT22;62667;48.698;8.762;2022-08-06T05:56:44;19.10;50.60
10868;DHT22;62667;48.698;8.762;2022-08-06T05:59:20;19.20;50.20
10868;DHT22;62667;48.698;8.762;2022-08-06T06:01:53;19.20;50.30
10868;DHT22;62667;48.698;8.762;2022-08-06T06:04:21;19.20;50.30
10868;DHT22;62667;48.698;8.762;2022-08-06T06:06:49;19.10;49.60
10868;DHT22;62667;48.698;8.762;2022-08-06T06:14:27;19.10;66.60
10868;DHT22;62667;48.698;8.762;2022-08-06T06:17:24;19.10;50.80
10868;DHT22;62667;48.698;8.762;2022-08-06T06:20:04;19.20;50.70
10868;DHT22;62667;48.698;8.762;2022-08-06T06:22:42;19.10;50.80
10868;DHT22;62667;48.698;8.762;2022-08-06T06:25:19;19.10;50.90
10868;DHT22;62667;48.698;8.762;2022-08-06T06:27:53;19.10;51.00
10868;DHT22;62667;48.698;8.762;2022-08-06T06:30:31;19.10;51.00
10868;DHT22;62667;48.698;8.762;2022-08-06T06:38:31;19.10;49.70
10868;DHT22;62667;48.698;8.762;2022-08-06T06:41:12;19.20;50.40
10868;DHT22;62667;48.698;8.762;2022-08-06T06:44:11;19.30;50.60
10868;DHT22;62667;48.698;8.762;2022-08-06T06:46:47;19.50;49.50
10868;DHT22;62667;48.698;8.762;2022-08-06T06:49:22;19.60;49.20
10868;DHT22;62667;48.698;8.762;2022-08-06T06:59:31;19.80;76.80
10868;DHT22;62667;48.698;8.762;2022-08-06T07:02:04;19.90;49.30
10868;DHT22;62667;48.698;8.762;2022-08-06T07:04:32;20.10;48.70
10868;DHT22;62667;48.698;8.762;2022-08-06T07:07:02;20.20;47.80
10868;DHT22;62667;48.698;8.762;2022-08-06T07:09:31;20.30;48.00
10868;DHT22;62667;48.698;8.762;2022-08-06T07:12:01;20.30;47.50
10868;DHT22;62667;48.698;8.762;2022-08-06T07:14:31;20.30;47.60
10868;DHT22;62667;48.698;8.762;2022-08-06T07:17:01;20.30;47.40
10868;DHT22;62667;48.698;8.762;2022-08-06T07:19:29;20.20;48.20
10868;DHT22;62667;48.698;8.762;2022-08-06T07:21:58;20.30;48.00
10868;DHT22;62667;48.698;8.762;2022-08-06T07:24:27;20.40;47.10
10868;DHT22;62667;48.698;8.762;2022-08-06T07:26:57;20.30;46.80
10868;DHT22;62667;48.698;8.762;2022-08-06T07:29:26;20.30;47.60
10868;DHT22;62667;48.698;8.762;2022-08-06T07:31:55;20.20;47.00
10868;DHT22;62667;48.698;8.762;2022-08-06T07:34:22;20.10;47.50
10868;DHT22;62667;48.698;8.762;2022-08-06T07:36:52;20.10;47.30
10868;DHT22;62667;48.698;8.762;2022-08-06T07:39:23;20.20;47.40
10868;DHT22;62667;48.698;8.762;2022-08-06T07:41:56;20.20;46.80
10868;DHT22;62667;48.698;8.762;2022-08-06T07:44:27;20.30;46.30
10868;DHT22;62667;48.698;8.762;2022-08-06T07:46:58;20.30;45.40
10868;DHT22;62667;48.698;8.762;2022-08-06T07:49:36;20.20;45.70
10868;DHT22;62667;48.698;8.762;2022-08-06T07:52:12;20.40;45.50
10868;DHT22;62667;48.698;8.762;2022-08-06T07:57:12;20.60;62.30
10868;DHT22;62667;48.698;8.762;2022-08-06T07:59:39;20.80;41.90
10868;DHT22;62667;48.698;8.762;2022-08-06T08:02:07;20.80;43.40
10868;DHT22;62667;48.698;8.762;2022-08-06T08:04:36;20.90;41.80
10868;DHT22;62667;48.698;8.762;2022-08-06T08:09:50;21.30;40.80
10868;DHT22;62667;48.698;8.762;2022-08-06T08:12:18;21.30;41.40
10868;DHT22;62667;48.698;8.762;2022-08-06T08:19:46;21.80;37.60
10868;DHT22;62667;48.698;8.762;2022-08-06T08:22:15;21.80;38.40
10868;DHT22;62667;48.698;8.762;2022-08-06T08:27:12;22.30;37.10
10868;DHT22;62667;48.698;8.762;2022-08-06T08:29:39;22.40;36.80
10868;DHT22;62667;48.698;8.762;2022-08-06T08:32:08;22.10;37.20
10868;DHT22;62667;48.698;8.762;2022-08-06T08:34:35;22.20;37.70
10868;DHT22;62667;48.698;8.762;2022-08-06T08:37:03;22.30;37.20
10868;DHT22;62667;48.698;8.762;2022-08-06T08:42:02;22.30;48.50
10868;DHT22;62667;48.698;8.762;2022-08-06T08:47:03;22.40;35.30
10868;DHT22;62667;48.698;8.762;2022-08-06T08:49:35;22.50;36.20
10868;DHT22;62667;48.698;8.762;2022-08-06T08:52:07;22.50;35.90
10868;DHT22;62667;48.698;8.762;2022-08-06T08:59:42;22.80;34.60
10868;DHT22;62667;48.698;8.762;2022-08-06T09:07:09;23.20;33.20
10868;DHT22;62667;48.698;8.762;2022-08-06T09:09:39;23.10;33.30
10868;DHT22;62667;48.698;8.762;2022-08-06T09:17:01;22.80;33.70
10868;DHT22;62667;48.698;8.762;2022-08-06T09:21:56;23.20;33.40
10868;DHT22;62667;48.698;8.762;2022-08-06T09:24:24;23.30;33.90
10868;DHT22;62667;48.698;8.762;2022-08-06T09:29:33;23.60;32.20
10868;DHT22;62667;48.698;8.762;2022-08-06T09:32:01;23.60;33.20
10868;DHT22;62667;48.698;8.762;2022-08-06T09:34:35;23.60;33.30
10868;DHT22;62667;48.698;8.762;2022-08-06T09:37:04;23.50;32.10
10868;DHT22;62667;48.698;8.762;2022-08-06T09:39:33;23.50;33.00
10868;DHT22;62667;48.698;8.762;2022-08-06T09:42:03;23.50;32.40
10868;DHT22;62667;48.698;8.762;2022-08-06T09:44:30;23.50;32.60
10868;DHT22;62667;48.698;8.762;2022-08-06T09:46:56;23.30;32.30
10868;DHT22;62667;48.698;8.762;2022-08-06T09:49:26;23.10;32.90
10868;DHT22;62667;48.698;8.762;2022-08-06T09:52:10;23.00;32.90
10868;DHT22;62667;48.698;8.762;2022-08-06T09:54:39;23.20;33.00
10868;DHT22;62667;48.698;8.762;2022-08-06T09:57:06;23.40;32.40
10868;DHT22;62667;48.698;8.762;2022-08-06T09:59:42;23.40;31.50
10868;DHT22;62667;48.698;8.762;2022-08-06T10:02:14;23.40;31.80
10868;DHT22;62667;48.698;8.762;2022-08-06T10:04:41;23.30;31.50
10868;DHT22;62667;48.698;8.762;2022-08-06T10:07:10;23.20;31.90
10868;DHT22;62667;48.698;8.762;2022-08-06T10:09:51;23.50;31.90
10868;DHT22;62667;48.698;8.762;2022-08-06T10:12:23;23.80;31.70
10868;DHT22;62667;48.698;8.762;2022-08-06T10:14:52;23.90;30.50
10868;DHT22;62667;48.698;8.762;2022-08-06T10:17:20;24.00;30.70
10868;DHT22;62667;48.698;8.762;2022-08-06T10:20:03;24.40;30.60
10868;DHT22;62667;48.698;8.762;2022-08-06T10:22:34;24.30;30.40
10868;DHT22;62667;48.698;8.762;2022-08-06T10:25:03;24.30;29.50
10868;DHT22;62667;48.698;8.762;2022-08-06T10:27:32;24.40;29.70
10868;DHT22;62667;48.698;8.762;2022-08-06T10:30:03;24.40;29.00
10868;DHT22;62667;48.698;8.762;2022-08-06T10:35:04;23.90;29.50
10868;DHT22;62667;48.698;8.762;2022-08-06T10:37:35;23.90;30.20
10868;DHT22;62667;48.698;8.762;2022-08-06T10:40:05;24.20;29.10
10868;DHT22;62667;48.698;8.762;2022-08-06T10:42:35;24.20;29.20
10868;DHT22;62667;48.698;8.762;2022-08-06T10:45:02;24.30;29.70
10868;DHT22;62667;48.698;8.762;2022-08-06T10:47:32;24.10;29.40
10868;DHT22;62667;48.698;8.762;2022-08-06T10:50:00;24.20;29.60
10868;DHT22;62667;48.698;8.762;2022-08-06T10:52:28;24.00;29.50
10868;DHT22;62667;48.698;8.762;2022-08-06T10:54:58;24.00;29.90
10868;DHT22;62667;48.698;8.762;2022-08-06T10:57:27;24.10;29.10
10868;DHT22;62667;48.698;8.762;2022-08-06T10:59:53;24.40;29.60
10868;DHT22;62667;48.698;8.762;2022-08-06T11:02:28;24.50;28.90
10868;DHT22;62667;48.698;8.762;2022-08-06T11:05:06;24.70;28.00
10868;DHT22;62667;48.698;8.762;2022-08-06T11:07:55;24.80;28.40
10868;DHT22;62667;48.698;8.762;2022-08-06T11:10:43;25.20;28.30
10868;DHT22;62667;48.698;8.762;2022-08-06T11:13:21;25.40;28.40
10868;DHT22;62667;48.698;8.762;2022-08-06T11:15:58;25.60;26.00
10868;DHT22;62667;48.698;8.762;2022-08-06T11:18:28;25.90;25.90
10868;DHT22;62667;48.698;8.762;2022-08-06T11:20:55;25.80;25.30
10868;DHT22;62667;48.698;8.762;2022-08-06T11:23:28;25.90;25.10
10868;DHT22;62667;48.698;8.762;2022-08-06T11:25:59;25.70;25.50
10868;DHT22;62667;48.698;8.762;2022-08-06T11:28:59;25.80;25.70
10868;DHT22;62667;48.698;8.762;2022-08-06T11:31:40;25.70;25.20
10868;DHT22;62667;48.698;8.762;2022-08-06T11:34:13;25.70;25.50
10868;DHT22;62667;48.698;8.762;2022-08-06T11:36:53;25.80;26.40
10868;DHT22;62667;48.698;8.762;2022-08-06T11:39:24;26.20;23.80
10868;DHT22;62667;48.698;8.762;2022-08-06T11:41:58;26.40;24.70
10868;DHT22;62667;48.698;8.762;2022-08-06T11:44:29;26.20;23.70
10868;DHT22;62667;48.698;8.762;2022-08-06T11:47:14;26.30;24.10
10868;DHT22;62667;48.698;8.762;2022-08-06T11:49:47;26.30;24.00
10868;DHT22;62667;48.698;8.762;2022-08-06T11:52:38;26.10;24.00
10868;DHT22;62667;48.698;8.762;2022-08-06T11:55:08;26.40;24.40
10868;DHT22;62667;48.698;8.762;2022-08-06T11:57:35;26.90;23.50
10868;DHT22;62667;48.698;8.762;2022-08-06T12:00:27;26.90;22.80
10868;DHT22;62667;48.698;8.762;2022-08-06T12:02:58;26.50;23.60
10868;DHT22;62667;48.698;8.762;2022-08-06T12:05:40;26.70;23.30
10868;DHT22;62667;48.698;8.762;2022-08-06T12:08:22;27.00;22.80
10868;DHT22;62667;48.698;8.762;2022-08-06T12:11:21;26.90;22.50
10868;DHT22;62667;48.698;8.762;2022-08-06T12:13:58;27.40;22.40
10868;DHT22;62667;48.698;8.762;2022-08-06T12:16:28;27.20;22.50
10868;DHT22;62667;48.698;8.762;2022-08-06T12:18:57;26.80;22.40
10868;DHT22;62667;48.698;8.762;2022-08-06T12:21:27;27.20;21.70
10868;DHT22;62667;48.698;8.762;2022-08-06T12:23:57;27.30;21.20
10868;DHT22;62667;48.698;8.762;2022-08-06T12:26:24;27.60;21.10
10868;DHT22;62667;48.698;8.762;2022-08-06T12:29:00;27.30;21.50
10868;DHT22;62667;48.698;8.762;2022-08-06T12:31:32;27.50;22.60
10868;DHT22;62667;48.698;8.762;2022-08-06T12:34:01;27.90;21.00
10868;DHT22;62667;48.698;8.762;2022-08-06T12:36:32;28.20;20.20
10868;DHT22;62667;48.698;8.762;2022-08-06T12:39:01;27.90;20.20
10868;DHT22;62667;48.698;8.762;2022-08-06T12:41:36;28.00;21.90
10868;DHT22;62667;48.698;8.762;2022-08-06T12:44:07;28.10;21.00
10868;DHT22;62667;48.698;8.762;2022-08-06T12:46:36;28.10;20.20
10868;DHT22;62667;48.698;8.762;2022-08-06T12:49:02;28.10;20.40
10868;DHT22;62667;48.698;8.762;2022-08-06T12:51:29;28.00;20.30
10868;DHT22;62667;48.698;8.762;2022-08-06T12:54:00;28.10;19.90
10868;DHT22;62667;48.698;8.762;2022-08-06T12:56:31;28.30;21.20
10868;DHT22;62667;48.698;8.762;2022-08-06T12:59:05;27.70;20.70
10868;DHT22;62667;48.698;8.762;2022-08-06T13:01:36;27.60;20.70
10868;DHT22;62667;48.698;8.762;2022-08-06T13:04:08;28.20;21.50
10868;DHT22;62667;48.698;8.762;2022-08-06T13:06:39;28.50;20.30
10868;DHT22;62667;48.698;8.762;2022-08-06T13:09:06;28.80;19.30
10868;DHT22;62667;48.698;8.762;2022-08-06T13:11:34;29.00;19.30
10868;DHT22;62667;48.698;8.762;2022-08-06T13:14:12;28.70;19.00
10868;DHT22;62667;48.698;8.762;2022-08-06T13:16:43;28.90;19.40
10868;DHT22;62667;48.698;8.762;2022-08-06T13:19:12;29.00;19.90
10868;DHT22;62667;48.698;8.762;2022-08-06T13:21:41;29.10;19.10
10868;DHT22;62667;48.698;8.762;2022-08-06T13:24:09;28.90;19.30
10868;DHT22;62667;48.698;8.762;2022-08-06T13:26:49;28.50;20.00
10868;DHT22;62667;48.698;8.762;2022-08-06T13:29:20;28.60;20.00
10868;DHT22;62667;48.698;8.762;2022-08-06T13:32:03;27.50;20.40
10868;DHT22;62667;48.698;8.762;2022-08-06T13:34:45;27.20;21.90
10868;DHT22;62667;48.698;8.762;2022-08-06T13:37:15;27.50;22.80
10868;DHT22;62667;48.698;8.762;2022-08-06T13:39:51;28.20;20.90
10868;DHT22;62667;48.698;8.762;2022-08-06T13:42:18;27.80;21.00
10868;DHT22;62667;48.698;8.762;2022-08-06T13:44:47;28.20;20.60
10868;DHT22;62667;48.698;8.762;2022-08-06T13:47:28;28.80;19.90
10868;DHT22;62667;48.698;8.762;2022-08-06T13:49:55;29.30;19.60
10868;DHT22;62667;48.698;8.762;2022-08-06T13:52:23;29.10;19.50
10868;DHT22;62667;48.698;8.762;2022-08-06T13:54:50;29.30;19.20
10868;DHT22;62667;48.698;8.762;2022-08-06T13:57:16;29.40;19.10
10868;DHT22;62667;48.698;8.762;2022-08-06T13:59:43;29.00;19.00
10868;DHT22;62667;48.698;8.762;2022-08-06T14:02:12;28.50;18.70
10868;DHT22;62667;48.698;8.762;2022-08-06T14:04:41;28.20;20.00
10868;DHT22;62667;48.698;8.762;2022-08-06T14:07:07;28.80;18.70
10868;DHT22;62667;48.698;8.762;2022-08-06T14:09:36;29.30;19.10
10868;DHT22;62667;48.698;8.762;2022-08-06T14:12:03;30.10;18.00
10868;DHT22;62667;48.698;8.762;2022-08-06T14:14:35;30.20;17.60
10868;DHT22;62667;48.698;8.762;2022-08-06T14:17:01;30.50;16.50
10868;DHT22;62667;48.698;8.762;2022-08-06T14:19:28;30.90;16.50
10868;DHT22;62667;48.698;8.762;2022-08-06T14:21:55;30.90;16.60
10868;DHT22;62667;48.698;8.762;2022-08-06T14:24:24;31.00;16.80
10868;DHT22;62667;48.698;8.762;2022-08-06T14:26:51;30.20;17.00
10868;DHT22;62667;48.698;8.762;2022-08-06T14:29:17;30.00;17.20
10868;DHT22;62667;48.698;8.762;2022-08-06T14:31:44;29.30;18.20
10868;DHT22;62667;48.698;8.762;2022-08-06T14:34:10;28.80;18.10
10868;DHT22;62667;48.698;8.762;2022-08-06T14:36:37;28.60;18.80
10868;DHT22;62667;48.698;8.762;2022-08-06T14:39:05;28.70;19.20
10868;DHT22;62667;48.698;8.762;2022-08-06T14:41:31;29.60;18.40
10868;DHT22;62667;48.698;8.762;2022-08-06T14:44:16;30.40;17.40
10868;DHT22;62667;48.698;8.762;2022-08-06T14:47:00;31.20;16.70
10868;DHT22;62667;48.698;8.762;2022-08-06T14:49:34;31.40;15.60
10868;DHT22;62667;48.698;8.762;2022-08-06T14:52:01;31.50;15.30
10868;DHT22;62667;48.698;8.762;2022-08-06T14:54:29;31.40;15.70
10868;DHT22;62667;48.698;8.762;2022-08-06T14:56:56;32.10;15.30
10868;DHT22;62667;48.698;8.762;2022-08-06T14:59:23;32.60;14.70
10868;DHT22;62667;48.698;8.762;2022-08-06T15:01:51;32.10;14.60
10868;DHT22;62667;48.698;8.762;2022-08-06T15:04:21;31.90;15.10
10868;DHT22;62667;48.698;8.762;2022-08-06T15:06:47;32.30;15.00
10868;DHT22;62667;48.698;8.762;2022-08-06T15:09:14;32.60;14.40
10868;DHT22;62667;48.698;8.762;2022-08-06T15:11:41;32.70;14.60
10868;DHT22;62667;48.698;8.762;2022-08-06T15:14:08;33.10;14.50
10868;DHT22;62667;48.698;8.762;2022-08-06T15:16:34;33.40;13.80
10868;DHT22;62667;48.698;8.762;2022-08-06T15:19:01;33.10;13.40
10868;DHT22;62667;48.698;8.762;2022-08-06T15:21:27;33.00;13.70
10868;DHT22;62667;48.698;8.762;2022-08-06T15:28:53;35.40;11.60
10868;DHT22;62667;48.698;8.762;2022-08-06T15:31:20;36.00;11.30
10868;DHT22;62667;48.698;8.762;2022-08-06T15:36:16;37.90;9.20
10868;DHT22;62667;48.698;8.762;2022-08-06T17:02:29;35.30;10.10
10868;DHT22;62667;48.698;8.762;2022-08-06T17:05:07;35.50;10.50
10868;DHT22;62667;48.698;8.762;2022-08-06T17:07:34;35.50;10.50
10868;DHT22;62667;48.698;8.762;2022-08-06T17:10:04;35.30;10.50
10868;DHT22;62667;48.698;8.762;2022-08-06T17:12:35;35.00;10.50
10868;DHT22;62667;48.698;8.762;2022-08-06T17:15:03;35.00;11.10
10868;DHT22;62667;48.698;8.762;2022-08-06T17:17:31;35.10;10.90
10868;DHT22;62667;48.698;8.762;2022-08-06T17:22:25;33.50;11.00
10868;DHT22;62667;48.698;8.762;2022-08-06T17:24:51;33.50;11.50
10868;DHT22;62667;48.698;8.762;2022-08-06T17:27:20;33.60;11.50
10868;DHT22;62667;48.698;8.762;2022-08-06T17:29:47;33.20;12.00
10868;DHT22;62667;48.698;8.762;2022-08-06T17:32:16;33.10;11.60
10868;DHT22;62667;48.698;8.762;2022-08-06T17:34:46;33.20;11.90
10868;DHT22;62667;48.698;8.762;2022-08-06T17:37:13;33.10;11.90
10868;DHT22;62667;48.698;8.762;2022-08-06T17:39:39;33.20;12.20
10868;DHT22;62667;48.698;8.762;2022-08-06T17:42:06;33.20;12.10
10868;DHT22;62667;48.698;8.762;2022-08-06T17:44:32;33.00;12.30
10868;DHT22;62667;48.698;8.762;2022-08-06T17:46:59;32.90;12.00
10868;DHT22;62667;48.698;8.762;2022-08-06T17:49:26;32.80;12.20
10868;DHT22;62667;48.698;8.762;2022-08-06T17:51:52;32.40;12.50
10868;DHT22;62667;48.698;8.762;2022-08-06T17:54:19;32.20;12.60
10868;DHT22;62667;48.698;8.762;2022-08-06T17:56:46;31.50;12.90
10868;DHT22;62667;48.698;8.762;2022-08-06T18:01:39;31.20;13.10
10868;DHT22;62667;48.698;8.762;2022-08-06T18:04:06;31.00;13.60
10868;DHT22;62667;48.698;8.762;2022-08-06T18:06:34;30.70;13.50
10868;DHT22;62667;48.698;8.762;2022-08-06T18:09:02;30.30;14.00
10868;DHT22;62667;48.698;8.762;2022-08-06T18:11:32;30.10;14.40
10868;DHT22;62667;48.698;8.762;2022-08-06T18:13:59;29.70;14.40
10868;DHT22;62667;48.698;8.762;2022-08-06T18:16:25;29.60;14.80
10868;DHT22;62667;48.698;8.762;2022-08-06T18:18:52;29.40;15.40
10868;DHT22;62667;48.698;8.762;2022-08-06T18:21:20;29.00;15.80
10868;DHT22;62667;48.698;8.762;2022-08-06T18:23:47;28.60;16.10
10868;DHT22;62667;48.698;8.762;2022-08-06T18:26:15;28.10;16.10
10868;DHT22;62667;48.698;8.762;2022-08-06T18:28:41;27.70;16.20